Time;durP1;ratioP1;P1;durP2;ratioP2;P2;SDS_P1;SDS_P2;PMS_P1;PMS_P2;Temp;Humidity;BMP_temperature;BMP_pressure;BME280_temperature;BME280_humidity;BME280_pressure;Samples;Min_cycle;Max_cycle;Signal;HPM_P1;HPM_P2
2022/04/08 00:00:08;;;;;;;5.82;3.35;;;;;;;10.49;71.33;94019.28;6236890;23;20447;-82
2022/04/08 00:02:38;;;;;;;8.23;2.20;;;;;;;9.73;67.65;93875.28;6238887;22;20318;-83
2022/04/08 00:05:04;;;;;;;7.10;2.00;;;;;;;10.65;67.04;93994.00;6238608;22;20004;-83
2022/04/08 00:07:30;;;;;;;3.45;1.92;;;;;;;10.37;68.40;93967.63;6239316;22;20541;-83
2022/04/08 00:09:55;;;;;;;4.10;2.10;;;;;;;10.30;67.22;93945.25;6237751;23;20043;-82
2022/04/08 00:12:21;;;;;;;4.32;1.75;;;;;;;10.62;66.51;93983.97;6238837;22;20004;-83
2022/04/08 00:14:47;;;;;;;3.13;1.50;;;;;;;10.22;66.07;93924.78;6238775;22;20409;-82
2022/04/08 00:17:13;;;;;;;2.03;1.40;;;;;;;10.32;65.60;93949.16;6238624;22;20039;-82
2022/04/08 00:19:38;;;;;;;5.32;1.75;;;;;;;10.74;67.05;94005.44;6238865;22;20422;-82
2022/04/08 00:22:06;;;;;;;2.67;1.67;;;;;;;10.03;65.71;93893.13;6240990;22;20008;-82
2022/04/08 00:24:32;;;;;;;4.35;1.90;;;;;;;9.66;65.89;93842.06;6238551;23;20004;-83
2022/04/08 00:26:57;;;;;;;5.47;1.55;;;;;;;10.86;66.96;94010.19;6239985;22;20093;-84
2022/04/08 00:29:23;;;;;;;7.45;2.17;;;;;;;10.18;69.22;93937.06;6237208;23;20008;-83
2022/04/08 00:31:50;;;;;;;6.35;2.30;;;;;;;9.41;67.60;93821.47;6237083;23;20467;-83
2022/04/08 00:34:16;;;;;;;6.13;1.92;;;;;;;9.47;65.85;93822.91;6238538;22;20016;-83
2022/04/08 00:36:41;;;;;;;5.18;1.55;;;;;;;10.35;67.28;93979.59;6238257;23;20151;-82
2022/04/08 00:39:11;;;;;;;2.97;1.80;;;;;;;10.33;66.08;93971.16;6240819;22;20012;-83
2022/04/08 00:41:37;;;;;;;5.20;2.03;;;;;;;10.49;66.11;93979.53;6239741;22;20008;-83
2022/04/08 00:44:03;;;;;;;3.45;1.70;;;;;;;10.03;65.33;93909.03;6238558;23;20011;-83
2022/04/08 00:46:29;;;;;;;7.43;2.55;;;;;;;10.69;65.84;93989.63;6239647;22;20012;-84
2022/04/08 00:48:54;;;;;;;6.35;1.75;;;;;;;10.14;63.16;93933.44;6241040;22;20150;-83
2022/04/08 00:51:21;;;;;;;3.35;1.80;;;;;;;9.80;65.15;93878.31;6238147;23;20008;-83
2022/04/08 00:53:48;;;;;;;5.03;2.47;;;;;;;10.65;64.21;94002.72;6235896;23;20133;-83
2022/04/08 00:56:13;;;;;;;3.22;1.88;;;;;;;10.57;63.46;94002.66;6238214;22;20126;-83
2022/04/08 00:58:39;;;;;;;8.05;1.90;;;;;;;9.18;63.83;93769.59;6240364;22;20008;-83
2022/04/08 01:01:05;;;;;;;7.30;2.40;;;;;;;10.90;65.17;94027.84;6240480;22;20008;-82
2022/04/08 01:03:30;;;;;;;7.47;2.47;;;;;;;10.57;66.34;94000.00;6238890;23;20035;-84
2022/04/08 01:05:57;;;;;;;6.47;2.17;;;;;;;10.84;66.61;94016.56;6239510;23;20379;-82
2022/04/08 01:08:22;;;;;;;8.63;2.40;;;;;;;9.66;65.35;93850.03;6242262;23;20023;-82
2022/04/08 01:10:49;;;;;;;2.17;1.73;;;;;;;10.41;66.22;93995.06;6242504;23;20012;-83
2022/04/08 01:13:14;;;;;;;4.13;2.22;;;;;;;10.58;64.59;94004.22;6237762;22;20026;-84
2022/04/08 01:15:40;;;;;;;5.45;1.80;;;;;;;10.00;62.72;93923.63;6237141;22;20251;-84
2022/04/08 01:18:05;;;;;;;6.68;2.25;;;;;;;10.44;62.28;93999.78;6235682;23;20039;-83
2022/04/08 01:20:32;;;;;;;8.23;2.10;;;;;;;10.25;63.40;93975.31;6234563;23;20542;-83
2022/04/08 01:22:57;;;;;;;2.60;1.63;;;;;;;9.87;62.49;93924.47;6238115;22;20016;-83
2022/04/08 01:25:23;;;;;;;4.68;1.92;;;;;;;10.53;63.92;94028.97;6236024;23;20075;-84
2022/04/08 01:27:48;;;;;;;7.93;3.10;;;;;;;10.38;62.63;94011.56;6236578;22;20004;-84
2022/04/08 01:30:16;;;;;;;2.83;2.08;;;;;;;9.52;62.51;93878.41;6236446;23;20053;-83
2022/04/08 01:32:42;;;;;;;5.07;2.30;;;;;;;10.59;62.88;94059.63;6238060;22;20404;-83
2022/04/08 01:35:08;;;;;;;3.17;2.03;;;;;;;10.04;62.73;93974.94;6235812;23;20020;-83
2022/04/08 01:37:33;;;;;;;11.25;2.40;;;;;;;9.86;63.69;93953.91;6236254;23;20046;-83
2022/04/08 01:39:59;;;;;;;5.32;2.00;;;;;;;10.00;63.38;93983.78;6237869;22;20095;-83
2022/04/08 01:42:24;;;;;;;5.60;2.65;;;;;;;10.04;63.38;93988.19;6235209;23;20022;-83
2022/04/08 01:44:52;;;;;;;9.75;2.88;;;;;;;10.12;63.39;94001.81;6237293;22;20016;-82
2022/04/08 01:47:17;;;;;;;7.53;3.20;;;;;;;9.07;64.48;93844.97;6238082;22;20032;-83
2022/04/08 01:49:42;;;;;;;12.48;3.35;;;;;;;10.05;62.34;94000.38;6238077;23;20019;-83
2022/04/08 01:52:08;;;;;;;12.70;2.65;;;;;;;10.35;62.10;94048.50;6236608;23;20004;-83
2022/04/08 01:54:34;;;;;;;5.53;2.72;;;;;;;9.67;62.95;93940.81;6236192;23;20016;-83
2022/04/08 01:56:59;;;;;;;7.38;3.45;;;;;;;10.13;62.72;93996.22;6236183;23;20018;-83
2022/04/08 01:59:24;;;;;;;3.55;2.00;;;;;;;10.07;62.84;94002.69;6232742;23;20015;-82
2022/04/08 02:01:50;;;;;;;7.35;2.00;;;;;;;9.60;62.34;93932.50;6230297;23;20069;-82
2022/04/08 02:04:16;;;;;;;5.28;2.00;;;;;;;9.85;60.84;93950.47;6231785;23;20006;-82
2022/04/08 02:06:42;;;;;;;5.57;1.73;;;;;;;10.06;60.17;94009.88;6231125;23;20015;-84
2022/04/08 02:09:08;;;;;;;4.22;1.80;;;;;;;10.56;60.12;94046.94;6230716;23;20019;-83
2022/04/08 02:11:35;;;;;;;2.90;1.95;;;;;;;9.98;60.33;93965.56;6233263;22;20008;-83
2022/04/08 02:14:00;;;;;;;5.55;2.30;;;;;;;10.62;59.44;94053.69;6230979;23;20018;-83
2022/04/08 02:16:26;;;;;;;8.13;2.38;;;;;;;10.12;60.23;93991.22;6234547;22;20091;-83
2022/04/08 02:18:51;;;;;;;7.28;2.47;;;;;;;9.87;59.51;93927.13;6233898;22;20008;-83
2022/04/08 02:21:19;;;;;;;4.03;2.67;;;;;;;10.44;59.66;94023.63;6232319;23;20016;-83
2022/04/08 02:23:52;;;;;;;6.70;2.00;;;;;;;9.77;58.97;93919.38;6235556;22;20031;-82
2022/04/08 02:26:18;;;;;;;6.97;1.70;;;;;;;10.79;59.00;94061.00;6234826;22;20043;-82
2022/04/08 02:28:44;;;;;;;4.13;1.77;;;;;;;10.62;59.26;94058.22;6233510;22;20038;-82
2022/04/08 02:31:10;;;;;;;5.18;2.30;;;;;;;10.63;59.33;94060.56;6232124;23;20012;-82
2022/04/08 02:33:36;;;;;;;7.72;2.10;;;;;;;10.51;60.88;94068.28;6234275;22;20103;-83
2022/04/08 02:36:03;;;;;;;6.88;1.98;;;;;;;10.47;61.08;94047.94;6231667;22;20117;-83
2022/04/08 02:38:28;;;;;;;7.25;2.17;;;;;;;9.80;59.67;93963.03;6236291;23;20476;-83
2022/04/08 02:40:54;;;;;;;7.22;2.50;;;;;;;9.72;60.60;93937.25;6237812;22;20008;-83
2022/04/08 02:43:20;;;;;;;7.47;2.38;;;;;;;10.24;60.12;94029.38;6235585;23;20007;-83
2022/04/08 02:45:45;;;;;;;4.50;2.15;;;;;;;10.38;59.77;94053.19;6233862;23;20031;-83
2022/04/08 02:48:13;;;;;;;18.08;3.72;;;;;;;10.38;63.47;94095.59;6232652;23;20028;-83
2022/04/08 02:50:39;;;;;;;5.50;2.83;;;;;;;9.93;62.03;94033.72;6234355;22;20363;-83
2022/04/08 02:53:05;;;;;;;8.77;3.38;;;;;;;9.87;61.38;94043.63;6230865;23;20452;-83
2022/04/08 02:55:31;;;;;;;7.68;2.90;;;;;;;9.74;60.57;94025.91;6232567;23;20087;-83
2022/04/08 02:57:56;;;;;;;8.82;2.80;;;;;;;9.69;60.20;94000.31;6231839;23;20081;-83
2022/04/08 03:00:21;;;;;;;6.75;3.53;;;;;;;9.62;63.41;94020.31;6234331;22;20008;-83
2022/04/08 03:02:48;;;;;;;5.80;2.08;;;;;;;9.75;59.46;94053.97;6231382;23;20519;-83
2022/04/08 03:05:15;;;;;;;2.90;1.90;;;;;;;9.96;57.84;94054.31;6231219;23;20347;-83
2022/04/08 03:07:41;;;;;;;4.53;2.40;;;;;;;10.03;57.76;94041.47;6231949;23;20074;-83
2022/04/08 03:10:08;;;;;;;5.88;2.67;;;;;;;9.61;59.95;93992.28;6233692;22;20031;-82
2022/04/08 03:12:33;;;;;;;4.07;1.88;;;;;;;10.31;59.89;94113.75;6232863;22;20060;-82
2022/04/08 03:14:59;;;;;;;5.55;2.08;;;;;;;9.58;59.88;94003.47;6232929;22;20471;-82
2022/04/08 03:17:26;;;;;;;4.93;2.05;;;;;;;10.25;59.74;94128.19;6233867;22;20158;-82
2022/04/08 03:19:52;;;;;;;4.13;2.10;;;;;;;8.88;60.20;93911.16;6233302;22;20088;-83
2022/04/08 03:22:20;;;;;;;8.13;2.45;;;;;;;10.13;60.93;94125.25;6231523;23;20771;-83
2022/04/08 03:24:50;;;;;;;7.97;2.33;;;;;;;9.85;59.96;94079.44;6230984;23;20004;-82
2022/04/08 03:27:16;;;;;;;2.78;1.40;;;;;;;10.16;59.48;94151.91;6230671;23;20308;-83
2022/04/08 03:29:42;;;;;;;4.50;1.92;;;;;;;9.21;60.10;94004.44;6233064;23;20012;-82
2022/04/08 03:32:09;;;;;;;13.55;2.30;;;;;;;9.71;59.63;94084.72;6233553;22;20008;-84
2022/04/08 03:34:35;;;;;;;5.13;1.50;;;;;;;9.69;58.99;94087.66;6234539;23;20520;-82
2022/04/08 03:37:00;;;;;;;3.50;1.50;;;;;;;9.42;59.85;94052.47;6231648;23;20023;-82
2022/04/08 03:39:26;;;;;;;5.47;1.80;;;;;;;9.53;60.11;94085.63;6235174;22;20016;-83
2022/04/08 03:41:53;;;;;;;5.50;1.90;;;;;;;9.89;59.80;94146.63;6235375;22;20463;-83
2022/04/08 03:44:19;;;;;;;4.22;1.83;;;;;;;9.60;60.27;94147.69;6233638;22;20015;-83
2022/04/08 03:46:46;;;;;;;4.20;1.95;;;;;;;10.04;59.90;94175.47;6232722;23;20027;-84
2022/04/08 03:49:14;;;;;;;3.63;2.03;;;;;;;9.43;60.08;94093.72;6236238;23;20012;-82
2022/04/08 03:51:46;;;;;;;5.55;1.95;;;;;;;10.08;59.55;94185.19;6233696;23;20016;-82
2022/04/08 03:54:13;;;;;;;6.70;2.40;;;;;;;9.39;59.45;94088.22;6230859;23;20015;-83
2022/04/08 03:56:42;;;;;;;5.20;2.30;;;;;;;9.93;59.66;94176.72;6230247;23;20016;-83
2022/04/08 03:59:08;;;;;;;7.63;2.28;;;;;;;9.85;59.11;94170.25;6232626;22;20095;-83
2022/04/08 04:01:34;;;;;;;3.72;1.73;;;;;;;9.77;58.79;94164.84;6229787;23;20238;-83
2022/04/08 04:04:00;;;;;;;5.05;1.95;;;;;;;9.34;59.34;94114.78;6230564;23;20071;-83
2022/04/08 04:06:25;;;;;;;4.22;2.50;;;;;;;9.22;59.69;94086.16;6230226;23;20444;-83
2022/04/08 04:08:51;;;;;;;8.07;2.38;;;;;;;9.36;60.23;94117.94;6233116;22;20014;-83
2022/04/08 04:11:16;;;;;;;3.17;1.92;;;;;;;9.42;59.86;94139.78;6230599;23;20011;-83
2022/04/08 04:13:42;;;;;;;3.95;1.90;;;;;;;10.02;59.20;94217.34;6233165;22;20008;-82
2022/04/08 04:16:08;;;;;;;6.38;2.40;;;;;;;9.51;60.64;94170.59;6231224;23;20019;-82
2022/04/08 04:18:34;;;;;;;8.45;2.58;;;;;;;9.17;60.33;94127.75;6230244;23;20039;-82
2022/04/08 04:20:59;;;;;;;5.25;2.55;;;;;;;9.10;61.96;94159.09;6233295;22;20004;-82
2022/04/08 04:23:25;;;;;;;9.13;3.10;;;;;;;9.07;62.36;94157.03;6230988;23;20060;-84
2022/04/08 04:25:51;;;;;;;6.72;2.85;;;;;;;9.16;63.01;94179.88;6230718;22;20042;-82
2022/04/08 04:28:16;;;;;;;9.55;2.70;;;;;;;9.58;62.44;94249.63;6230841;22;20015;-82
2022/04/08 04:30:41;;;;;;;10.05;2.28;;;;;;;8.82;61.30;94132.53;6230231;23;20012;-83
2022/04/08 04:33:08;;;;;;;7.55;3.17;;;;;;;8.29;62.65;94057.19;6230458;23;20052;-83
2022/04/08 04:35:37;;;;;;;14.13;3.10;;;;;;;8.56;62.81;94096.97;6230301;23;20096;-84
2022/04/08 04:38:02;;;;;;;14.95;3.60;;;;;;;9.25;63.20;94206.47;6231540;23;20039;-82
2022/04/08 04:40:28;;;;;;;11.80;3.70;;;;;;;9.08;64.59;94201.69;6230072;23;20019;-82
2022/04/08 04:42:55;;;;;;;9.63;3.50;;;;;;;9.41;63.66;94236.91;6230742;23;20127;-82
2022/04/08 04:45:21;;;;;;;8.98;3.80;;;;;;;8.59;63.11;94103.56;6230025;22;20016;-83
2022/04/08 04:47:47;;;;;;;14.30;3.78;;;;;;;9.08;61.98;94169.19;6231843;22;20041;-82
2022/04/08 04:50:12;;;;;;;6.75;2.40;;;;;;;8.72;60.05;94103.59;6233249;22;20008;-83
2022/04/08 04:52:37;;;;;;;7.70;2.85;;;;;;;9.67;60.16;94256.63;6233249;23;20020;-83
2022/04/08 04:55:04;;;;;;;6.00;2.70;;;;;;;9.58;58.74;94236.38;6234209;22;20012;-83
2022/04/08 04:57:30;;;;;;;7.00;2.60;;;;;;;9.39;59.22;94215.25;6233484;22;20430;-82
2022/04/08 04:59:55;;;;;;;3.45;1.95;;;;;;;9.95;59.51;94310.44;6234786;22;20146;-83
2022/04/08 05:02:21;;;;;;;10.05;3.10;;;;;;;9.85;59.92;94294.72;6235601;22;20027;-83
2022/04/08 05:04:46;;;;;;;3.90;2.13;;;;;;;9.63;59.00;94238.94;6232461;23;20040;-82
2022/04/08 05:07:12;;;;;;;6.13;2.78;;;;;;;9.32;59.00;94172.50;6232280;23;20014;-82
2022/04/08 05:09:41;;;;;;;10.00;2.58;;;;;;;9.46;59.24;94228.88;6234429;22;20438;-82
2022/04/08 05:12:08;;;;;;;4.18;1.95;;;;;;;9.37;57.84;94169.00;6229794;23;20012;-82
2022/04/08 05:14:34;;;;;;;4.75;2.72;;;;;;;9.01;57.09;94110.56;6233103;22;20479;-83
2022/04/08 05:17:00;;;;;;;7.82;2.42;;;;;;;9.89;57.28;94228.72;6229913;22;20046;-83
2022/04/08 05:19:25;;;;;;;5.10;2.45;;;;;;;9.66;56.72;94175.63;6231550;23;20363;-83
2022/04/08 05:21:54;;;;;;;8.90;2.95;;;;;;;10.05;57.99;94237.97;6231919;22;20105;-83
2022/04/08 05:24:20;;;;;;;8.90;2.60;;;;;;;10.62;58.01;94337.41;6229455;23;20007;-83
2022/04/08 05:26:45;;;;;;;4.97;2.20;;;;;;;10.13;57.33;94252.41;6228865;23;20356;-82
2022/04/08 05:29:11;;;;;;;8.40;2.55;;;;;;;10.84;56.22;94334.06;6229690;23;20007;-82
2022/04/08 05:31:37;;;;;;;16.25;3.20;;;;;;;10.36;57.54;94278.00;6229572;22;20008;-83
2022/04/08 05:34:02;;;;;;;4.78;2.75;;;;;;;10.84;56.14;94328.75;6227444;23;20008;-82
2022/04/08 05:36:28;;;;;;;13.90;3.20;;;;;;;10.07;56.19;94214.59;6228748;23;20016;-82
2022/04/08 05:38:53;;;;;;;5.75;2.67;;;;;;;10.18;55.32;94226.63;6228963;23;20364;-82
2022/04/08 05:41:19;;;;;;;6.57;2.00;;;;;;;10.60;55.57;94280.47;6229406;23;20019;-83
2022/04/08 05:43:45;;;;;;;13.73;3.15;;;;;;;10.45;56.10;94239.88;6229035;22;20004;-83
2022/04/08 05:46:11;;;;;;;11.05;3.03;;;;;;;11.12;57.14;94332.97;6229278;22;20015;-83
2022/04/08 05:48:37;;;;;;;21.45;4.40;;;;;;;10.71;58.84;94306.47;6226196;23;20367;-83
2022/04/08 05:51:02;;;;;;;10.48;4.10;;;;;;;10.26;59.39;94249.00;6226403;23;20011;-82
2022/04/08 05:53:28;;;;;;;10.07;3.97;;;;;;;10.49;59.48;94302.91;6226243;23;20024;-82
2022/04/08 05:55:57;;;;;;;19.92;4.80;;;;;;;10.94;60.38;94359.59;6229095;22;20016;-82
2022/04/08 05:58:23;;;;;;;17.75;4.72;;;;;;;10.70;60.12;94338.56;6229807;22;20019;-83
2022/04/08 06:00:49;;;;;;;11.68;4.15;;;;;;;10.67;60.37;94333.88;6229764;22;20013;-82
2022/04/08 06:03:15;;;;;;;13.60;3.85;;;;;;;10.69;60.10;94321.09;6228473;23;20012;-82
2022/04/08 06:05:40;;;;;;;13.15;3.58;;;;;;;10.81;59.49;94334.66;6227655;23;20424;-83
2022/04/08 06:08:06;;;;;;;14.02;3.80;;;;;;;9.85;60.14;94193.28;6232431;22;20042;-83
2022/04/08 06:10:32;;;;;;;26.77;5.97;;;;;;;10.62;61.20;94308.22;6227018;23;20095;-83
2022/04/08 06:12:57;;;;;;;19.33;4.68;;;;;;;10.15;62.10;94237.78;6229521;23;20426;-83
2022/04/08 06:15:25;;;;;;;8.35;4.35;;;;;;;10.96;62.11;94360.09;6227489;23;20011;-83
2022/04/08 06:17:51;;;;;;;16.45;3.75;;;;;;;10.32;61.19;94245.97;6227386;23;20023;-83
2022/04/08 06:20:18;;;;;;;6.88;3.50;;;;;;;10.63;60.67;94279.84;6227089;23;20012;-83
2022/04/08 06:22:44;;;;;;;18.35;4.55;;;;;;;10.62;59.74;94279.06;6226222;23;20008;-83
2022/04/08 06:25:12;;;;;;;19.73;4.65;;;;;;;10.48;59.20;94250.97;6229742;22;20471;-83
2022/04/08 06:27:37;;;;;;;13.93;4.38;;;;;;;11.29;59.33;94368.75;6227983;23;20714;-83
2022/04/08 06:30:09;;;;;;;6.90;2.83;;;;;;;11.29;58.61;94374.06;6230328;22;20012;-83
2022/04/08 06:32:35;;;;;;;26.35;4.28;;;;;;;11.13;59.13;94336.44;6228222;23;20359;-83
2022/04/08 06:35:00;;;;;;;9.30;2.85;;;;;;;11.11;59.69;94327.97;6225840;23;20023;-83
2022/04/08 06:37:29;;;;;;;13.68;3.38;;;;;;;10.28;59.38;94188.56;6227283;23;20077;-83
2022/04/08 06:39:55;;;;;;;14.25;3.58;;;;;;;11.53;59.45;94374.59;6224512;23;20011;-83
2022/04/08 06:42:22;;;;;;;14.13;3.00;;;;;;;11.07;57.70;94289.81;6225468;23;20004;-83
2022/04/08 06:44:47;;;;;;;11.13;2.70;;;;;;;11.43;54.15;94300.47;6225060;22;20452;-83
2022/04/08 06:47:13;;;;;;;6.15;2.35;;;;;;;12.05;51.69;94389.16;6225455;23;20255;-83
2022/04/08 06:49:44;;;;;;;10.45;2.72;;;;;;;12.19;48.24;94371.28;6228475;22;20012;-83
2022/04/08 06:52:11;;;;;;;13.45;2.88;;;;;;;12.34;48.70;94357.59;6225620;23;20099;-82
2022/04/08 06:54:37;;;;;;;4.35;2.20;;;;;;;12.08;46.82;94310.66;6225962;23;20016;-83
2022/04/08 06:57:02;;;;;;;4.53;2.15;;;;;;;12.48;47.01;94356.72;6226058;23;20203;-83
2022/04/08 06:59:28;;;;;;;7.00;2.25;;;;;;;12.32;46.52;94335.84;6225750;23;20208;-83
2022/04/08 07:01:53;;;;;;;7.03;1.80;;;;;;;11.93;46.17;94274.63;6225586;23;20016;-83
2022/04/08 07:04:19;;;;;;;6.15;2.17;;;;;;;12.10;46.46;94284.59;6229582;22;20073;-83
2022/04/08 07:06:44;;;;;;;10.82;2.42;;;;;;;12.46;46.34;94335.75;6226046;23;20016;-83
2022/04/08 07:09:10;;;;;;;5.35;2.13;;;;;;;12.41;46.64;94338.56;6233730;23;20015;-83
2022/04/08 07:11:35;;;;;;;6.03;2.05;;;;;;;12.88;47.08;94392.94;6234834;23;20068;-83
2022/04/08 07:14:01;;;;;;;3.22;2.15;;;;;;;12.97;46.85;94399.06;6234626;23;20330;-83
2022/04/08 07:16:27;;;;;;;7.65;2.60;;;;;;;10.52;46.87;94026.66;6237315;23;20019;-83
2022/04/08 07:18:53;;;;;;;2.38;1.80;;;;;;;13.00;45.82;94408.31;6234891;22;20037;-83
2022/04/08 07:21:19;;;;;;;4.93;2.30;;;;;;;13.01;45.80;94416.00;6235714;23;20008;-84
2022/04/08 07:23:44;;;;;;;5.95;2.10;;;;;;;12.33;45.60;94316.16;6233053;23;20038;-84
2022/04/08 07:26:10;;;;;;;9.43;2.22;;;;;;;12.69;45.67;94357.78;6229349;23;20544;-84
2022/04/08 07:28:36;;;;;;;6.68;2.35;;;;;;;12.56;45.71;94334.72;6232507;22;20012;-84
2022/04/08 07:31:02;;;;;;;6.55;2.50;;;;;;;12.37;45.63;94326.94;6231280;22;20014;-83
2022/04/08 07:33:27;;;;;;;4.22;1.90;;;;;;;13.14;49.33;94441.75;6230431;22;20028;-84
2022/04/08 07:35:53;;;;;;;10.25;3.03;;;;;;;12.12;48.89;94279.75;6232485;22;20435;-83
2022/04/08 07:38:18;;;;;;;3.60;2.15;;;;;;;13.25;50.77;94446.81;6231671;22;20087;-83
2022/04/08 07:40:44;;;;;;;7.75;2.22;;;;;;;12.79;52.97;94370.03;6228906;23;20012;-84
2022/04/08 07:43:10;;;;;;;6.18;2.45;;;;;;;13.07;54.33;94417.44;6228703;23;20022;-84
2022/04/08 07:45:36;;;;;;;5.80;2.40;;;;;;;12.57;53.19;94361.03;6230720;22;20367;-83
2022/04/08 07:48:02;;;;;;;10.60;3.22;;;;;;;12.98;54.13;94437.13;6231425;22;20011;-82
2022/04/08 07:50:28;;;;;;;9.10;2.17;;;;;;;12.91;53.13;94442.09;6228992;23;20527;-83
2022/04/08 07:52:54;;;;;;;7.68;2.80;;;;;;;12.13;54.14;94326.50;6231055;22;20030;-83
2022/04/08 07:55:20;;;;;;;6.40;2.53;;;;;;;12.46;53.45;94391.59;6229499;22;20004;-83
2022/04/08 07:57:46;;;;;;;6.43;2.30;;;;;;;12.89;53.84;94458.34;6229715;23;20018;-83
2022/04/08 08:00:17;;;;;;;10.65;3.45;;;;;;;12.77;55.38;94461.59;6231731;23;20039;-83
2022/04/08 08:02:43;;;;;;;8.63;2.20;;;;;;;12.75;55.30;94458.44;6228330;23;20047;-83
2022/04/08 08:05:09;;;;;;;8.05;2.63;;;;;;;11.22;56.28;94205.38;6229762;22;20416;-83
2022/04/08 08:07:55;;;;;;;6.18;2.20;;;;;;;12.92;56.16;94452.44;6230024;22;20008;-83
2022/04/08 08:10:24;;;;;;;16.95;3.05;;;;;;;13.02;56.16;94454.84;6225909;23;20015;-83
2022/04/08 08:12:51;;;;;;;13.23;2.67;;;;;;;12.32;54.26;94351.81;6230023;22;20062;-83
2022/04/08 08:15:18;;;;;;;6.32;2.10;;;;;;;13.35;47.18;94457.22;6228179;23;20011;-83
2022/04/08 08:17:44;;;;;;;6.45;2.20;;;;;;;13.46;46.08;94469.94;6227401;23;20012;-83
2022/04/08 08:20:11;;;;;;;8.90;2.22;;;;;;;13.71;46.19;94459.66;6231061;22;20056;-83
2022/04/08 08:22:37;;;;;;;4.05;2.38;;;;;;;13.40;46.15;94393.16;6232769;23;20723;-83
2022/04/08 08:25:05;;;;;;;7.57;2.40;;;;;;;13.37;45.42;94385.78;6230433;23;20008;-83
2022/04/08 08:27:44;;;;;;;13.13;2.63;;;;;;;13.64;45.38;94435.38;6229823;23;20023;-83
2022/04/08 08:30:12;;;;;;;2.55;1.88;;;;;;;13.45;45.83;94401.78;6232042;23;20374;-83
2022/04/08 08:32:44;;;;;;;6.57;2.28;;;;;;;13.94;46.23;94461.13;6229650;23;20263;-83
2022/04/08 08:35:13;;;;;;;3.70;1.95;;;;;;;13.82;44.55;94432.41;6229887;23;20015;-83
2022/04/08 08:37:38;;;;;;;5.63;2.63;;;;;;;14.20;44.86;94459.25;6230674;22;20034;-83
2022/04/08 08:40:05;;;;;;;4.55;2.00;;;;;;;14.23;43.51;94465.88;6233014;22;20008;-83
2022/04/08 08:42:34;;;;;;;8.85;2.10;;;;;;;13.62;43.38;94390.38;6231760;22;20011;-83
2022/04/08 08:45:00;;;;;;;12.30;1.85;;;;;;;13.82;42.92;94410.31;6229306;22;20199;-83
2022/04/08 08:47:30;;;;;;;4.97;1.88;;;;;;;13.97;44.04;94407.19;6231040;22;20016;-83
2022/04/08 08:49:56;;;;;;;4.53;1.90;;;;;;;14.17;44.20;94427.91;6240409;23;20495;-83
2022/04/08 08:52:23;;;;;;;10.10;2.10;;;;;;;14.42;44.26;94487.69;6227830;23;20108;-83
2022/04/08 08:54:49;;;;;;;9.98;2.42;;;;;;;13.97;44.40;94380.53;6228498;23;20058;-83
2022/04/08 08:57:19;;;;;;;5.22;2.13;;;;;;;14.14;43.58;94377.88;6229177;23;20447;-83
2022/04/08 08:59:46;;;;;;;4.45;1.90;;;;;;;14.18;43.73;94402.81;6228808;23;20043;-83
2022/04/08 09:02:21;;;;;;;4.93;2.20;;;;;;;14.70;44.13;94474.84;6231625;23;20015;-83
2022/04/08 09:04:51;;;;;;;4.07;1.75;;;;;;;14.57;43.69;94444.53;6234640;22;20004;-83
2022/04/08 09:07:29;;;;;;;4.18;1.70;;;;;;;14.58;42.94;94438.09;6230671;23;20019;-83
2022/04/08 09:09:58;;;;;;;9.07;1.88;;;;;;;13.86;43.82;94307.31;6230769;23;20111;-83
2022/04/08 09:12:25;;;;;;;5.80;1.90;;;;;;;15.03;43.18;94475.84;6231704;22;20204;-83
2022/04/08 09:14:53;;;;;;;4.88;2.70;;;;;;;14.44;42.23;94357.47;6229866;23;20004;-83
2022/04/08 09:17:21;;;;;;;4.55;2.30;;;;;;;14.67;42.24;94390.06;6229274;22;20016;-84
2022/04/08 09:19:53;;;;;;;4.65;2.30;;;;;;;15.15;43.24;94431.69;6231151;22;20083;-83
2022/04/08 09:22:21;;;;;;;4.75;2.42;;;;;;;14.97;42.45;94405.03;6230074;22;20008;-83
2022/04/08 09:24:48;;;;;;;1.88;1.30;;;;;;;15.29;41.52;94475.78;6229668;23;20067;-84
2022/04/08 09:27:14;;;;;;;4.75;1.67;;;;;;;15.12;41.97;94446.47;6230612;22;20031;-83
2022/04/08 09:29:44;;;;;;;5.03;2.00;;;;;;;14.64;42.21;94364.81;6228307;23;20019;-83
2022/04/08 09:32:14;;;;;;;3.83;2.25;;;;;;;14.85;43.04;94414.81;6232763;22;20008;-83
2022/04/08 09:34:41;;;;;;;3.23;2.00;;;;;;;14.79;44.50;94384.84;6230712;22;20008;-83
2022/04/08 09:37:12;;;;;;;3.13;1.75;;;;;;;14.90;44.45;94417.31;6231275;23;20255;-84
2022/04/08 09:39:55;;;;;;;7.32;2.58;;;;;;;14.64;44.85;94362.13;6234719;22;20011;-83
2022/04/08 09:42:20;;;;;;;5.90;1.95;;;;;;;15.06;43.63;94424.50;6235800;22;20470;-83
2022/04/08 09:44:47;;;;;;;6.07;2.17;;;;;;;14.73;44.96;94363.97;6236450;22;20047;-84
2022/04/08 09:47:15;;;;;;;5.20;1.70;;;;;;;14.84;42.42;94381.22;6232713;23;20022;-83
2022/04/08 09:49:44;;;;;;;4.85;1.80;;;;;;;15.44;42.97;94450.44;6236083;23;20008;-82
2022/04/08 09:52:11;;;;;;;5.25;2.10;;;;;;;14.97;42.76;94369.56;6235367;23;20016;-83
2022/04/08 09:54:41;;;;;;;9.57;2.08;;;;;;;15.11;43.92;94406.72;6233564;23;20012;-83
2022/04/08 09:57:17;;;;;;;5.75;1.80;;;;;;;14.49;42.52;94297.84;6235514;22;20016;-83
2022/04/08 09:59:46;;;;;;;8.52;1.80;;;;;;;15.90;44.25;94472.88;6236512;22;20031;-83
2022/04/08 10:02:14;;;;;;;6.78;2.25;;;;;;;16.56;43.20;94452.41;6234815;23;20012;-82
2022/04/08 10:04:40;;;;;;;5.85;1.80;;;;;;;16.38;40.91;94288.56;6236856;22;20000;-83
2022/04/08 10:07:06;;;;;;;6.32;2.20;;;;;;;17.63;40.29;94404.00;6233874;23;20047;-83
2022/04/08 10:09:35;;;;;;;7.20;1.92;;;;;;;18.60;38.65;94461.34;6232500;23;20004;-83
2022/04/08 10:12:18;;;;;;;7.85;1.92;;;;;;;18.31;37.88;94333.56;6235286;22;20019;-83
2022/04/08 10:15:08;;;;;;;7.85;1.98;;;;;;;19.68;37.30;94453.84;6234015;23;20008;-83
2022/04/08 10:17:34;;;;;;;5.07;2.35;;;;;;;19.71;37.23;94387.78;6232864;23;20463;-83
2022/04/08 10:20:16;;;;;;;3.80;1.60;;;;;;;19.94;34.93;94367.97;6234645;23;20008;-83
2022/04/08 10:22:42;;;;;;;5.82;1.75;;;;;;;20.41;35.39;94427.06;6234468;23;20070;-83
2022/04/08 10:25:16;;;;;;;3.13;1.50;;;;;;;19.69;35.39;94315.50;6235166;23;20012;-83
2022/04/08 10:27:44;;;;;;;5.55;1.95;;;;;;;20.27;34.62;94359.44;6234775;23;20028;-83
2022/04/08 10:30:23;;;;;;;5.90;2.08;;;;;;;21.13;34.17;94437.31;6234318;23;20391;-83
2022/04/08 10:32:59;;;;;;;8.55;2.17;;;;;;;21.31;33.61;94421.47;6236510;22;20054;-84
2022/04/08 10:35:28;;;;;;;4.07;1.83;;;;;;;21.67;33.19;94439.03;6237963;22;20012;-84
2022/04/08 10:38:00;;;;;;;13.52;3.17;;;;;;;22.24;32.71;94409.06;6236172;23;20008;-83
2022/04/08 10:40:36;;;;;;;15.02;2.40;;;;;;;22.45;31.45;94354.53;6234428;23;20260;-83
2022/04/08 10:43:08;;;;;;;5.93;2.20;;;;;;;23.65;30.52;94435.41;6234822;22;20471;-83
2022/04/08 10:45:34;;;;;;;6.80;2.28;;;;;;;23.31;30.57;94381.34;6236703;22;20527;-83
2022/04/08 10:48:10;;;;;;;10.07;2.10;;;;;;;23.91;29.18;94364.03;6234886;23;20016;-83
2022/04/08 10:50:37;;;;;;;4.30;1.45;;;;;;;24.28;28.73;94383.63;6236900;22;20036;-83
2022/04/08 10:53:10;;;;;;;4.30;2.25;;;;;;;25.01;28.17;94419.59;6235143;23;20091;-83
2022/04/08 10:55:54;;;;;;;4.68;1.90;;;;;;;24.41;27.61;94327.19;6239824;22;20012;-84
2022/04/08 10:58:38;;;;;;;4.38;1.98;;;;;;;24.53;27.88;94360.13;6239899;22;20012;-82
2022/04/08 11:01:17;;;;;;;6.95;1.52;;;;;;;24.43;26.64;94360.06;6238697;23;20008;-82
2022/04/08 11:03:46;;;;;;;4.72;2.00;;;;;;;24.28;27.80;94399.88;6242029;23;20474;-82
2022/04/08 11:06:15;;;;;;;3.13;1.48;;;;;;;24.11;28.19;94406.72;6240764;23;20007;-83
2022/04/08 11:08:41;;;;;;;7.20;1.83;;;;;;;23.67;28.79;94384.34;6240656;23;20086;-80
2022/04/08 11:11:07;;;;;;;8.32;2.08;;;;;;;23.27;28.90;94301.28;6234056;23;20019;-82
2022/04/08 11:13:32;;;;;;;5.63;2.13;;;;;;;22.77;28.91;94225.19;6234550;22;20062;-82
2022/04/08 11:15:58;;;;;;;5.60;1.90;;;;;;;23.82;28.60;94389.50;6234891;22;20017;-82
2022/04/08 11:18:26;;;;;;;9.40;1.90;;;;;;;23.31;28.62;94318.34;6234352;22;20012;-82
2022/04/08 11:20:52;;;;;;;4.78;1.67;;;;;;;23.77;28.18;94372.84;6233648;22;20059;-82
2022/04/08 11:23:30;;;;;;;10.98;2.28;;;;;;;24.30;28.37;94396.78;6231473;23;20019;-82
2022/04/08 11:25:56;;;;;;;4.10;1.35;;;;;;;23.92;25.35;94330.38;6233513;22;20004;-82
2022/04/08 11:28:25;;;;;;;12.93;1.63;;;;;;;24.08;24.28;94336.28;6232321;22;20008;-82
2022/04/08 11:30:58;;;;;;;8.57;1.88;;;;;;;23.83;24.75;94361.28;6228538;23;20008;-82
2022/04/08 11:33:25;;;;;;;6.63;1.17;;;;;;;23.78;25.00;94407.66;6229589;23;20012;-82